La Crosse Municipal Airport La Crosse US
ICAO: KLSE
IATA: LSE
Category: Medium
Scheduled Services: Yes

Elevation: 655 ft
TransAlt. 18000 ft.

Airport Communications:
ATIS:124.95
MINNEAPOLIS CNTR:128.6
CTAF:118.45
GND:121.8
GREEN BAY RDO:122.2
TWR:118.45
UNICOM:122.95

KLSE Zoom In..

Runways:

(A) RW 03 length 5199 ft width 150 ft
---- / hdg 34

(B) RW 13 length 6050 ft width 150 ft
---- / hdg 132

(C) RW 18 length 8742 ft width 150 ft
ILS 111.10 / hdg 177

(D) RW 21 length 5199 ft width 150 ft
---- / hdg 214

(E) RW 31 length 6050 ft width 150 ft
---- / hdg 312

(F) RW 36 length 8742 ft width 150 ft
---- / hdg 357

Location; KLSE
Day. 20 / Time. 01.53 Zulu
* Altimeter: 29.68
* Temperature: 21° c. 69.8°f.
* Wind from: 120° Speed 05 kn.
Dewpoint: 19° c.
Visibility: 8 Statute Miles.
Clouds: Broken 2700 ft.
Clouds: Overcast 3400 ft.
Conditions: Light Rain.

KLSE 200153Z 12005KT 8SM -RA BKN027 OVC034 21/19 A2968 RMK AO2 SLP042 P0010 T02060189


Wind From 120°
Speed 05 kn.

 
 
jpsmedia.com for Web Design worldairports.se 2018   terms of use